Time;durP1;ratioP1;P1;durP2;ratioP2;P2;SDS_P1;SDS_P2;PMS_P1;PMS_P2;Temp;Humidity;BMP_temperature;BMP_pressure;BME280_temperature;BME280_humidity;BME280_pressure;Samples;Min_cycle;Max_cycle;Signal;HPM_P1;HPM_P2
2023/07/17 00:01:32;;;;;;;5.38;2.88;;;;;;;20.13;55.83;97384.66;5929951;23;20182;-81
2023/07/17 00:03:57;;;;;;;4.85;2.80;;;;;;;20.16;56.15;97376.88;5930607;23;20169;-80
2023/07/17 00:06:22;;;;;;;4.45;3.10;;;;;;;20.11;56.49;97378.88;5940115;23;20232;-79
2023/07/17 00:08:48;;;;;;;4.95;3.58;;;;;;;20.06;56.63;97381.66;5907316;23;20173;-80
2023/07/17 00:11:13;;;;;;;5.32;3.00;;;;;;;20.01;56.75;97380.69;5953207;23;20060;-80
2023/07/17 00:13:38;;;;;;;4.43;2.72;;;;;;;20.03;56.11;97375.09;5963502;23;20267;-80
2023/07/17 00:16:04;;;;;;;4.35;2.95;;;;;;;19.96;56.35;97370.25;5930685;23;20191;-80
2023/07/17 00:18:31;;;;;;;4.43;2.70;;;;;;;19.99;56.21;97374.91;5930962;23;20174;-79
2023/07/17 00:20:57;;;;;;;5.93;2.90;;;;;;;19.90;57.03;97368.03;5963557;23;20605;-80
2023/07/17 00:23:23;;;;;;;4.35;3.13;;;;;;;19.88;56.76;97376.25;5940441;23;20173;-80
2023/07/17 00:25:48;;;;;;;4.15;3.00;;;;;;;19.89;56.96;97371.72;5988682;23;20205;-79
2023/07/17 00:28:13;;;;;;;4.03;2.55;;;;;;;19.84;57.25;97369.97;5931438;23;20249;-80
2023/07/17 00:30:39;;;;;;;4.88;2.85;;;;;;;19.77;57.72;97370.38;5966576;23;20235;-80
2023/07/17 00:33:04;;;;;;;6.57;3.03;;;;;;;19.81;57.32;97384.59;5930644;23;20319;-80
2023/07/17 00:35:29;;;;;;;4.32;3.25;;;;;;;19.80;57.57;97380.38;5964726;23;20210;-80
2023/07/17 00:37:55;;;;;;;4.95;2.92;;;;;;;19.83;57.43;97374.50;5964157;23;20181;-79
2023/07/17 00:40:20;;;;;;;5.07;2.78;;;;;;;19.69;57.74;97357.88;5940719;23;20310;-80
2023/07/17 00:42:45;;;;;;;5.40;3.25;;;;;;;19.88;57.67;97376.25;5961788;23;20215;-80
2023/07/17 00:45:11;;;;;;;3.63;2.85;;;;;;;19.79;57.79;97372.75;5939004;23;20622;-79
2023/07/17 00:47:36;;;;;;;5.28;3.42;;;;;;;19.88;57.75;97380.72;5941805;23;20682;-80
2023/07/17 00:50:04;;;;;;;4.25;3.00;;;;;;;19.88;57.87;97381.53;5908957;23;20302;-80
2023/07/17 00:52:29;;;;;;;5.00;3.10;;;;;;;19.80;57.67;97374.31;5930510;23;20216;-80
2023/07/17 00:54:55;;;;;;;4.35;3.08;;;;;;;19.85;57.93;97387.41;5908282;23;20104;-79
2023/07/17 00:57:22;;;;;;;4.65;2.88;;;;;;;19.82;57.90;97380.06;5931616;23;20225;-80
2023/07/17 00:59:48;;;;;;;4.88;2.88;;;;;;;19.76;57.66;97379.41;5961478;23;20147;-79
2023/07/17 01:02:13;;;;;;;5.57;3.10;;;;;;;19.75;57.42;97371.78;5930877;23;20242;-81
2023/07/17 01:04:46;;;;;;;4.78;2.58;;;;;;;19.79;57.88;97375.38;5948195;23;20019;-83
2023/07/17 01:07:11;;;;;;;5.18;2.90;;;;;;;19.72;58.46;97370.47;5971081;23;20015;-83
2023/07/17 01:09:37;;;;;;;4.88;3.10;;;;;;;19.68;58.07;97368.75;5924023;23;20344;-83
2023/07/17 01:12:03;;;;;;;3.85;3.08;;;;;;;19.62;58.66;97368.88;5890208;23;20061;-83
2023/07/17 01:14:28;;;;;;;3.58;2.65;;;;;;;19.58;58.00;97367.09;5892157;23;20325;-83
2023/07/17 01:16:54;;;;;;;3.22;2.78;;;;;;;19.61;58.93;97375.22;5889031;23;20527;-82
2023/07/17 01:19:19;;;;;;;4.55;3.00;;;;;;;19.52;58.72;97361.16;5938360;23;20336;-83
2023/07/17 01:21:51;;;;;;;6.35;3.33;;;;;;;19.64;58.55;97377.28;5915031;23;20226;-83
2023/07/17 01:24:17;;;;;;;5.05;2.92;;;;;;;19.50;58.27;97387.09;5895365;23;20337;-82
2023/07/17 01:26:43;;;;;;;3.15;2.63;;;;;;;19.50;58.54;97381.81;5940597;23;20190;-82
2023/07/17 01:29:08;;;;;;;5.43;2.80;;;;;;;19.54;59.20;97388.06;5892791;23;20156;-82
2023/07/17 01:31:35;;;;;;;4.85;3.00;;;;;;;19.50;58.69;97375.72;5938082;23;20471;-83
2023/07/17 01:34:00;;;;;;;3.75;3.00;;;;;;;19.49;59.05;97384.75;5915120;23;20155;-82
2023/07/17 01:36:26;;;;;;;4.25;3.10;;;;;;;19.45;59.06;97379.28;5893601;23;20609;-83
2023/07/17 01:38:52;;;;;;;3.15;2.40;;;;;;;19.39;59.25;97388.38;5949223;23;20247;-83
2023/07/17 01:41:17;;;;;;;5.25;2.72;;;;;;;19.33;58.99;97386.91;5916161;23;20360;-82
2023/07/17 01:43:43;;;;;;;4.93;3.33;;;;;;;19.32;59.49;97380.09;5913790;23;20370;-82
2023/07/17 01:46:08;;;;;;;4.35;2.88;;;;;;;19.32;59.10;97386.13;5892101;23;20345;-83
2023/07/17 01:48:34;;;;;;;5.13;3.20;;;;;;;19.28;58.97;97388.59;5925039;23;20247;-83
2023/07/17 01:50:59;;;;;;;5.70;2.92;;;;;;;19.31;60.12;97394.34;5914935;23;20370;-82
2023/07/17 01:53:25;;;;;;;5.65;3.03;;;;;;;19.31;59.26;97394.34;5913132;23;20547;-81
2023/07/17 01:55:50;;;;;;;4.53;3.00;;;;;;;19.21;60.08;97390.84;5915676;23;20210;-82
2023/07/17 01:58:16;;;;;;;3.88;3.25;;;;;;;19.22;60.23;97391.63;5892343;23;20170;-82
2023/07/17 02:00:41;;;;;;;6.50;2.83;;;;;;;19.22;60.05;97402.97;5891966;23;20188;-83
2023/07/17 02:03:09;;;;;;;4.38;2.65;;;;;;;19.14;60.38;97394.94;5938611;23;20202;-81
2023/07/17 02:05:35;;;;;;;4.90;3.53;;;;;;;19.11;60.09;97408.72;5915866;23;20195;-82
2023/07/17 02:08:00;;;;;;;5.82;3.03;;;;;;;19.07;60.54;97400.63;6013000;23;20346;-81
2023/07/17 02:10:26;;;;;;;4.15;3.13;;;;;;;19.06;60.02;97399.06;5914376;23;20300;-82
2023/07/17 02:12:51;;;;;;;4.05;2.88;;;;;;;19.03;60.64;97397.78;5949671;23;20182;-82
2023/07/17 02:15:17;;;;;;;5.28;2.88;;;;;;;19.01;60.57;97397.31;5923632;23;20166;-82
2023/07/17 02:17:42;;;;;;;3.58;3.28;;;;;;;18.93;60.79;97384.00;5926030;23;20350;-81
2023/07/17 02:20:10;;;;;;;6.50;3.40;;;;;;;18.94;60.54;97401.41;5892198;23;20011;-82
2023/07/17 02:22:39;;;;;;;5.13;3.00;;;;;;;18.93;60.95;97403.25;5938062;23;20306;-81
2023/07/17 02:25:05;;;;;;;5.43;3.30;;;;;;;18.88;61.41;97406.78;5936017;23;20373;-81
2023/07/17 02:27:33;;;;;;;5.00;3.17;;;;;;;18.84;60.95;97411.06;5947188;23;20347;-82
2023/07/17 02:30:03;;;;;;;6.43;3.30;;;;;;;18.78;61.37;97404.31;5947408;23;20182;-81
2023/07/17 02:32:28;;;;;;;3.45;2.80;;;;;;;18.77;61.40;97407.25;5947529;23;20614;-81
2023/07/17 02:34:54;;;;;;;6.65;3.08;;;;;;;18.71;61.00;97401.25;5949038;23;20194;-82
2023/07/17 02:37:19;;;;;;;4.97;2.92;;;;;;;18.65;61.26;97403.22;5916927;23;20281;-82
2023/07/17 02:39:45;;;;;;;4.40;3.00;;;;;;;18.66;61.62;97417.97;5916145;23;20132;-81
2023/07/17 02:42:10;;;;;;;3.78;3.25;;;;;;;18.64;61.80;97411.41;6013661;23;20344;-82
2023/07/17 02:44:35;;;;;;;6.95;2.95;;;;;;;18.65;61.62;97410.34;5945195;23;20314;-82
2023/07/17 02:47:01;;;;;;;4.07;2.83;;;;;;;18.57;62.02;97408.38;5893616;23;20386;-81
2023/07/17 02:49:26;;;;;;;5.78;2.88;;;;;;;18.70;61.84;97413.66;5924817;23;20551;-82
2023/07/17 02:51:52;;;;;;;4.90;3.30;;;;;;;18.72;61.07;97405.47;5890215;23;20151;-81
2023/07/17 02:54:17;;;;;;;3.88;2.92;;;;;;;18.81;61.70;97422.19;5911413;23;20263;-82
2023/07/17 02:56:42;;;;;;;5.20;3.30;;;;;;;18.80;61.23;97411.91;5889888;23;20265;-81
2023/07/17 02:59:08;;;;;;;4.97;3.03;;;;;;;18.72;61.60;97413.38;5920455;23;20491;-82
2023/07/17 03:01:33;;;;;;;3.25;2.67;;;;;;;18.72;61.63;97416.78;5945271;23;20314;-81
2023/07/17 03:03:59;;;;;;;4.20;3.30;;;;;;;18.75;61.49;97426.00;5911746;23;20225;-81
2023/07/17 03:06:24;;;;;;;5.28;3.25;;;;;;;18.78;61.53;97422.78;5936183;23;20282;-82
2023/07/17 03:08:50;;;;;;;4.38;3.17;;;;;;;18.63;60.88;97397.44;5889832;23;20189;-82
2023/07/17 03:11:16;;;;;;;4.63;2.88;;;;;;;18.86;61.35;97431.88;5923813;23;20343;-81
2023/07/17 03:13:42;;;;;;;5.97;3.50;;;;;;;18.82;60.98;97436.16;5890847;23;20060;-82
2023/07/17 03:16:07;;;;;;;5.63;3.40;;;;;;;18.75;61.63;97428.63;5913453;23;20655;-82
2023/07/17 03:18:32;;;;;;;3.50;3.20;;;;;;;18.67;61.74;97426.66;5890845;23;20443;-82
2023/07/17 03:20:58;;;;;;;4.53;3.10;;;;;;;18.78;61.36;97433.34;5922032;23;20339;-82
2023/07/17 03:23:23;;;;;;;4.90;2.97;;;;;;;18.72;61.55;97429.97;5922975;23;20144;-82
2023/07/17 03:25:49;;;;;;;5.45;2.80;;;;;;;18.74;61.43;97437.59;5889150;23;20470;-82
2023/07/17 03:28:14;;;;;;;5.38;3.08;;;;;;;18.68;61.10;97428.22;5913319;23;20205;-81
2023/07/17 03:30:40;;;;;;;3.95;3.13;;;;;;;18.65;61.56;97424.31;5944093;23;20538;-82
2023/07/17 03:33:06;;;;;;;4.95;2.95;;;;;;;18.67;61.50;97434.56;5911300;23;20253;-82
2023/07/17 03:35:33;;;;;;;6.30;3.58;;;;;;;18.66;62.30;97438.28;5936050;23;20526;-81
2023/07/17 03:37:59;;;;;;;5.57;3.13;;;;;;;18.67;62.13;97440.63;5946609;23;20122;-82
2023/07/17 03:40:24;;;;;;;5.32;2.83;;;;;;;18.61;61.88;97430.44;5912414;23;20194;-82
2023/07/17 03:42:49;;;;;;;5.07;3.33;;;;;;;18.61;62.00;97435.72;5889884;23;20198;-82
2023/07/17 03:45:15;;;;;;;5.53;3.08;;;;;;;18.58;62.10;97431.03;5887795;23;20343;-82
2023/07/17 03:47:40;;;;;;;5.32;2.95;;;;;;;18.61;61.55;97441.00;5913214;23;20460;-82
2023/07/17 03:50:06;;;;;;;4.38;3.45;;;;;;;18.56;62.28;97443.72;5911500;23;20186;-82
2023/07/17 03:52:32;;;;;;;5.35;3.10;;;;;;;18.51;61.81;97432.19;5890219;23;20317;-82
2023/07/17 03:54:57;;;;;;;7.47;3.42;;;;;;;18.65;61.73;97442.78;5887999;23;20306;-82
2023/07/17 03:57:23;;;;;;;4.82;3.15;;;;;;;18.62;61.81;97442.56;5888193;23;20221;-81
2023/07/17 03:59:53;;;;;;;4.47;3.00;;;;;;;18.70;62.18;97450.59;5889562;23;20174;-81
2023/07/17 04:02:19;;;;;;;4.35;3.10;;;;;;;18.66;62.23;97451.47;5920568;23;20416;-81
2023/07/17 04:04:44;;;;;;;5.40;3.00;;;;;;;18.63;61.41;97452.06;5888027;23;20285;-82
2023/07/17 04:07:10;;;;;;;5.00;3.20;;;;;;;18.63;62.11;97450.19;5921065;23;20209;-81
2023/07/17 04:09:38;;;;;;;3.70;2.80;;;;;;;18.65;61.96;97447.28;6007521;23;20337;-83
2023/07/17 04:12:04;;;;;;;6.53;3.25;;;;;;;18.59;62.13;97436.00;5888443;23;20147;-82
2023/07/17 04:14:30;;;;;;;4.75;3.10;;;;;;;18.72;62.68;97458.22;5911125;23;20325;-81
2023/07/17 04:16:56;;;;;;;6.68;3.35;;;;;;;18.72;62.10;97460.84;5888680;23;20254;-82
2023/07/17 04:19:21;;;;;;;6.00;3.30;;;;;;;18.71;62.01;97454.00;5933947;23;20321;-82
2023/07/17 04:21:46;;;;;;;6.22;3.35;;;;;;;18.76;61.80;97459.19;5911040;23;20562;-81
2023/07/17 04:24:12;;;;;;;4.68;3.17;;;;;;;18.76;61.80;97456.56;5919708;23;20456;-82
2023/07/17 04:26:37;;;;;;;4.35;3.30;;;;;;;18.82;62.14;97466.00;5934458;23;20207;-81
2023/07/17 04:29:03;;;;;;;5.28;3.67;;;;;;;18.86;62.02;97463.56;5920155;23;20274;-81
2023/07/17 04:31:28;;;;;;;4.45;3.42;;;;;;;18.93;61.96;97463.16;5888164;23;20281;-82
2023/07/17 04:33:53;;;;;;;4.38;3.40;;;;;;;19.00;61.81;97471.47;5909934;23;20174;-82
2023/07/17 04:36:19;;;;;;;5.43;3.10;;;;;;;19.04;62.36;97481.16;5935535;23;20170;-81
2023/07/17 04:38:44;;;;;;;5.18;3.00;;;;;;;19.09;61.58;97482.94;6007201;23;20265;-81
2023/07/17 04:41:10;;;;;;;3.63;3.00;;;;;;;19.15;62.18;97479.13;5887434;23;20155;-81
2023/07/17 04:43:35;;;;;;;5.25;3.17;;;;;;;19.17;62.29;97479.59;5943095;23;20363;-81
2023/07/17 04:46:00;;;;;;;5.03;3.08;;;;;;;19.15;61.97;97473.84;5887938;23;20173;-82
2023/07/17 04:48:26;;;;;;;6.20;3.35;;;;;;;19.16;61.75;97467.50;5935888;23;20179;-81
2023/07/17 04:50:53;;;;;;;7.05;3.40;;;;;;;19.28;61.85;97481.00;5912155;23;20338;-82
2023/07/17 04:53:19;;;;;;;3.50;3.20;;;;;;;19.27;61.67;97481.28;5911192;23;20186;-81
2023/07/17 04:55:46;;;;;;;4.82;3.38;;;;;;;19.36;61.48;97476.88;5912100;23;20144;-82
2023/07/17 04:58:11;;;;;;;3.90;3.03;;;;;;;19.45;61.12;97482.28;5912243;23;20377;-82
2023/07/17 05:00:37;;;;;;;5.20;3.33;;;;;;;19.52;60.73;97487.13;6007900;23;20229;-81
2023/07/17 05:03:02;;;;;;;5.00;3.00;;;;;;;19.59;60.35;97485.69;5916735;23;20246;-82
2023/07/17 05:05:28;;;;;;;5.05;3.15;;;;;;;19.63;60.66;97475.31;5920979;23;20305;-81
2023/07/17 05:07:54;;;;;;;5.05;3.10;;;;;;;19.72;60.25;97478.03;5911427;23;20356;-82
2023/07/17 05:10:19;;;;;;;4.57;3.00;;;;;;;19.80;60.34;97490.56;5912764;23;20084;-81
2023/07/17 05:12:45;;;;;;;4.07;3.15;;;;;;;19.85;59.68;97485.19;5889952;23;20421;-82
2023/07/17 05:15:10;;;;;;;4.25;3.38;;;;;;;19.98;58.86;97480.94;5891658;23;20007;-82
2023/07/17 05:17:36;;;;;;;5.78;3.20;;;;;;;20.08;58.50;97480.69;5891869;23;20250;-82
2023/07/17 05:20:04;;;;;;;4.28;3.45;;;;;;;20.18;58.79;97498.22;5936794;23;20058;-82
2023/07/17 05:22:30;;;;;;;5.38;3.40;;;;;;;20.20;57.88;97488.91;5939897;23;20304;-82
2023/07/17 05:24:56;;;;;;;4.57;3.33;;;;;;;20.25;58.68;97495.94;5889518;23;20157;-82
2023/07/17 05:27:22;;;;;;;4.68;3.25;;;;;;;20.48;57.71;97503.91;5891032;23;20111;-83
2023/07/17 05:29:47;;;;;;;6.75;3.45;;;;;;;20.58;56.98;97504.44;5921087;23;20172;-82
2023/07/17 05:32:13;;;;;;;6.18;3.80;;;;;;;20.65;57.12;97497.94;5887967;23;20377;-82
2023/07/17 05:34:38;;;;;;;4.25;3.38;;;;;;;20.77;57.85;97500.84;5910090;23;20194;-82
2023/07/17 05:37:05;;;;;;;5.68;3.28;;;;;;;20.81;56.88;97496.50;5889194;23;20190;-81
2023/07/17 05:39:30;;;;;;;4.68;3.50;;;;;;;20.89;56.66;97506.34;5921361;23;20210;-81
2023/07/17 05:41:56;;;;;;;5.00;3.30;;;;;;;20.97;56.28;97514.63;5924924;23;20330;-82
2023/07/17 05:44:21;;;;;;;5.20;3.55;;;;;;;21.09;56.71;97520.16;5922905;23;20053;-82
2023/07/17 05:46:47;;;;;;;5.60;3.95;;;;;;;21.18;56.26;97509.59;5924701;23;20350;-81
2023/07/17 05:49:13;;;;;;;5.72;3.45;;;;;;;21.20;56.17;97505.56;5922163;23;20147;-82
2023/07/17 05:51:38;;;;;;;5.43;3.55;;;;;;;21.29;54.83;97522.25;5888669;23;20230;-82
2023/07/17 05:54:04;;;;;;;4.82;2.75;;;;;;;21.27;55.04;97507.78;5888571;23;20306;-82
2023/07/17 05:56:29;;;;;;;5.75;3.30;;;;;;;21.37;54.77;97512.81;5911913;23;20345;-82
2023/07/17 05:58:54;;;;;;;4.80;3.28;;;;;;;21.47;54.58;97525.81;5886842;23;20178;-82
2023/07/17 06:01:20;;;;;;;5.45;3.35;;;;;;;21.53;54.35;97530.97;5911519;23;20273;-82
2023/07/17 06:03:46;;;;;;;6.25;3.20;;;;;;;21.60;53.71;97518.81;5910979;23;20468;-83
2023/07/17 06:06:11;;;;;;;5.95;3.08;;;;;;;21.62;54.26;97518.50;5911800;23;20084;-82
2023/07/17 06:08:36;;;;;;;4.38;3.55;;;;;;;21.72;54.35;97514.81;5913238;23;20306;-83
2023/07/17 06:11:02;;;;;;;4.65;3.22;;;;;;;21.86;53.83;97518.88;5945771;23;20611;-82
2023/07/17 06:13:27;;;;;;;5.10;3.65;;;;;;;22.06;52.55;97536.06;5888551;23;20378;-81
2023/07/17 06:15:53;;;;;;;5.72;3.40;;;;;;;22.16;52.09;97526.25;5914360;23;20383;-82
2023/07/17 06:18:18;;;;;;;5.97;3.22;;;;;;;22.28;50.85;97522.97;5889433;23;20410;-82
2023/07/17 06:20:44;;;;;;;4.28;3.40;;;;;;;22.33;51.16;97528.94;5892711;23;20086;-83
2023/07/17 06:23:09;;;;;;;3.95;3.50;;;;;;;22.36;50.90;97535.47;5944720;23;20221;-82
2023/07/17 06:25:36;;;;;;;3.30;3.00;;;;;;;22.34;50.35;97519.88;5921753;23;20608;-83
2023/07/17 06:28:01;;;;;;;4.05;3.20;;;;;;;22.36;51.02;97530.97;5897129;23;20190;-82
2023/07/17 06:30:27;;;;;;;5.47;3.30;;;;;;;22.62;49.84;97530.94;5891433;23;20222;-82
2023/07/17 06:32:52;;;;;;;5.20;3.10;;;;;;;22.82;50.18;97542.00;5893628;23;20209;-82
2023/07/17 06:35:18;;;;;;;4.93;3.40;;;;;;;22.71;49.29;97524.84;5921847;23;20086;-82
2023/07/17 06:37:44;;;;;;;5.32;3.47;;;;;;;22.79;50.09;97538.09;5927478;23;20256;-81
2023/07/17 06:40:10;;;;;;;4.95;3.00;;;;;;;22.92;49.29;97538.22;5893784;23;20147;-81
2023/07/17 06:42:36;;;;;;;7.13;4.25;;;;;;;22.86;49.85;97544.78;5917256;23;20392;-82
2023/07/17 06:45:02;;;;;;;5.18;3.30;;;;;;;22.83;50.65;97538.25;5946066;23;20249;-81
2023/07/17 06:47:28;;;;;;;6.30;3.47;;;;;;;22.94;49.50;97533.38;5891844;23;20246;-82
2023/07/17 06:49:53;;;;;;;6.10;2.92;;;;;;;23.24;48.23;97539.56;5923360;23;20335;-82
2023/07/17 06:52:19;;;;;;;5.35;3.53;;;;;;;23.45;48.35;97542.31;6016647;23;20186;-81
2023/07/17 06:54:45;;;;;;;3.55;2.92;;;;;;;23.60;47.38;97533.03;5930276;23;20319;-82
2023/07/17 06:57:11;;;;;;;3.95;3.20;;;;;;;23.80;46.41;97530.72;5948202;23;20186;-81
2023/07/17 06:59:36;;;;;;;5.45;3.47;;;;;;;24.07;45.70;97529.47;5893273;23;20299;-83
2023/07/17 07:02:02;;;;;;;4.10;3.20;;;;;;;24.23;44.78;97534.97;5944411;23;20374;-81
2023/07/17 07:04:27;;;;;;;6.40;3.30;;;;;;;24.44;44.57;97537.66;5890173;23;20263;-81
2023/07/17 07:06:53;;;;;;;4.70;3.50;;;;;;;24.60;45.12;97529.88;5900070;23;20118;-82
2023/07/17 07:09:18;;;;;;;4.28;3.38;;;;;;;24.76;44.18;97532.69;5902582;23;20306;-83
2023/07/17 07:11:44;;;;;;;4.78;3.42;;;;;;;24.93;43.19;97542.38;5914530;23;20260;-82
2023/07/17 07:14:09;;;;;;;4.72;3.42;;;;;;;24.89;43.15;97542.25;5911416;23;20234;-82
2023/07/17 07:16:34;;;;;;;7.70;3.17;;;;;;;24.85;43.43;97541.38;5933673;23;20235;-83
2023/07/17 07:19:00;;;;;;;5.10;3.22;;;;;;;24.80;44.05;97550.34;5924357;23;20628;-83
2023/07/17 07:21:25;;;;;;;4.90;3.17;;;;;;;24.70;43.77;97548.09;5901725;23;20163;-82
2023/07/17 07:23:51;;;;;;;5.80;3.75;;;;;;;24.93;43.63;97561.78;5925553;23;20008;-82
2023/07/17 07:26:16;;;;;;;5.55;2.97;;;;;;;24.74;44.34;97546.31;5933259;23;20186;-82
2023/07/17 07:28:42;;;;;;;6.85;3.58;;;;;;;24.56;42.97;97558.25;5909238;23;20170;-83
2023/07/17 07:31:07;;;;;;;4.45;2.75;;;;;;;24.44;43.08;97562.38;5923779;23;20239;-81
2023/07/17 07:33:33;;;;;;;4.78;3.00;;;;;;;24.67;42.62;97562.06;5897994;23;20650;-81
2023/07/17 07:36:00;;;;;;;3.55;2.45;;;;;;;24.89;42.34;97570.78;5898771;23;20448;-82
2023/07/17 07:38:25;;;;;;;5.50;3.10;;;;;;;24.97;42.70;97562.72;5962620;23;20373;-82
2023/07/17 07:40:50;;;;;;;5.45;3.00;;;;;;;25.04;41.99;97572.84;5968578;23;20145;-82
2023/07/17 07:43:16;;;;;;;4.63;2.92;;;;;;;24.95;41.83;97554.28;5901769;23;20401;-81
2023/07/17 07:45:41;;;;;;;3.25;2.58;;;;;;;25.10;42.53;97570.72;5909983;23;20355;-81
2023/07/17 07:48:07;;;;;;;3.67;2.80;;;;;;;25.21;41.88;97562.00;5965052;23;20198;-83
2023/07/17 07:50:32;;;;;;;6.47;3.05;;;;;;;25.45;41.59;97579.16;5936412;23;20241;-82
2023/07/17 07:52:58;;;;;;;3.85;2.83;;;;;;;25.65;41.06;97582.81;5940577;23;20168;-83
2023/07/17 07:55:23;;;;;;;4.07;3.28;;;;;;;25.70;40.34;97563.16;5936704;23;20276;-82
2023/07/17 07:57:49;;;;;;;5.35;2.60;;;;;;;25.94;39.56;97589.88;5942223;23;20328;-82
2023/07/17 08:00:15;;;;;;;4.93;2.65;;;;;;;25.90;39.96;97590.81;5919800;23;20023;-82
2023/07/17 08:02:40;;;;;;;4.78;2.72;;;;;;;25.80;40.32;97582.16;5946131;23;20243;-82
2023/07/17 08:05:07;;;;;;;5.15;3.13;;;;;;;25.58;43.03;97588.72;6011714;23;20260;-82
2023/07/17 08:07:33;;;;;;;4.72;3.30;;;;;;;25.46;42.31;97591.34;5985426;23;20232;-81
2023/07/17 08:09:58;;;;;;;3.95;2.92;;;;;;;25.68;40.77;97592.06;6069821;23;20268;-82
2023/07/17 08:12:23;;;;;;;3.88;2.65;;;;;;;25.95;40.61;97594.06;6021955;23;20073;-82
2023/07/17 08:14:50;;;;;;;6.03;3.42;;;;;;;26.08;40.72;97591.38;6014860;23;20376;-83
2023/07/17 08:17:15;;;;;;;5.68;3.33;;;;;;;26.22;40.53;97591.03;6008983;23;20225;-82
2023/07/17 08:19:41;;;;;;;5.15;3.22;;;;;;;26.27;41.49;97596.91;5981916;23;20141;-83
2023/07/17 08:22:06;;;;;;;3.75;3.00;;;;;;;26.61;39.57;97600.13;6035361;23;20229;-83
2023/07/17 08:24:32;;;;;;;4.72;3.05;;;;;;;26.67;40.50;97582.03;6001589;23;20031;-82
2023/07/17 08:26:57;;;;;;;4.03;2.95;;;;;;;26.74;38.99;97592.91;6070088;23;20179;-83
2023/07/17 08:29:22;;;;;;;5.35;3.35;;;;;;;26.80;38.13;97580.06;6102904;23;20080;-82
2023/07/17 08:31:48;;;;;;;3.50;3.08;;;;;;;26.69;39.04;97579.78;6055225;23;20199;-82
2023/07/17 08:34:13;;;;;;;4.72;3.00;;;;;;;26.81;39.84;97581.63;6057978;23;20177;-82
2023/07/17 08:36:40;;;;;;;5.38;2.70;;;;;;;27.05;39.61;97570.03;6095085;23;20170;-82
2023/07/17 08:39:05;;;;;;;5.30;2.80;;;;;;;27.36;37.36;97585.34;5924379;23;20027;-84
2023/07/17 08:41:31;;;;;;;4.38;2.70;;;;;;;27.46;39.12;97594.75;5930702;23;20302;-86
2023/07/17 08:43:58;;;;;;;4.82;3.03;;;;;;;27.41;37.76;97601.13;6022999;23;20012;-83
2023/07/17 08:46:23;;;;;;;5.25;2.67;;;;;;;27.64;37.57;97595.97;6054282;23;20059;-82
2023/07/17 08:48:52;;;;;;;5.00;2.60;;;;;;;27.70;36.29;97580.41;6039886;23;20116;-84
2023/07/17 08:51:18;;;;;;;4.90;2.70;;;;;;;27.80;36.81;97582.56;6026643;23;20330;-84
2023/07/17 08:53:44;;;;;;;3.60;2.60;;;;;;;27.64;35.71;97565.75;6024888;23;20089;-83
2023/07/17 08:56:12;;;;;;;3.60;2.88;;;;;;;27.74;36.66;97580.50;6026493;23;20201;-83
2023/07/17 08:58:38;;;;;;;4.90;3.10;;;;;;;27.93;35.94;97599.34;6026008;23;20030;-83
2023/07/17 09:01:04;;;;;;;4.40;2.55;;;;;;;28.07;35.75;97590.84;6032935;23;20008;-83
2023/07/17 09:03:32;;;;;;;4.45;3.35;;;;;;;27.84;34.55;97591.44;6049228;23;20285;-82
2023/07/17 09:06:01;;;;;;;3.85;2.58;;;;;;;27.96;33.59;97595.94;6018699;23;20151;-83
2023/07/17 09:08:26;;;;;;;4.85;2.20;;;;;;;28.24;34.40;97600.38;6044960;23;20240;-84
2023/07/17 09:11:03;;;;;;;5.55;2.47;;;;;;;28.16;32.09;97599.44;6010590;23;20281;-82
2023/07/17 09:13:37;;;;;;;2.75;2.03;;;;;;;28.30;33.09;97572.19;5946379;23;20289;-82
2023/07/17 09:18:32;;;;;;;3.40;2.15;;;;;;;28.55;31.32;97575.41;5979983;23;20296;-86
2023/07/17 09:21:01;;;;;;;3.88;2.28;;;;;;;28.47;29.16;97592.44;6050743;23;20109;-85
2023/07/17 09:23:38;;;;;;;3.35;2.30;;;;;;;28.53;31.63;97590.22;6062015;23;20058;-81
2023/07/17 09:26:03;;;;;;;2.58;2.30;;;;;;;28.56;29.73;97578.84;6044482;23;20377;-83
2023/07/17 09:28:29;;;;;;;3.80;2.47;;;;;;;28.61;28.53;97586.59;6065377;23;20161;-82
2023/07/17 09:31:01;;;;;;;3.45;2.45;;;;;;;28.17;30.36;97590.28;6047245;23;20223;-83
2023/07/17 09:33:26;;;;;;;3.80;2.25;;;;;;;28.31;29.93;97564.91;6042436;23;20338;-82
2023/07/17 09:35:57;;;;;;;4.93;2.42;;;;;;;28.55;31.56;97594.16;6030572;23;20461;-85
2023/07/17 09:38:25;;;;;;;4.13;3.00;;;;;;;28.82;29.74;97580.09;6049046;23;20162;-84
2023/07/17 09:40:51;;;;;;;3.70;2.30;;;;;;;29.00;30.99;97565.13;6027567;23;20177;-82
2023/07/17 09:43:30;;;;;;;5.20;2.80;;;;;;;29.14;29.06;97576.06;6071439;23;20286;-84
2023/07/17 09:46:00;;;;;;;3.28;2.45;;;;;;;29.25;29.17;97568.25;6057625;23;20408;-86
2023/07/17 09:48:28;;;;;;;3.67;2.60;;;;;;;29.27;28.74;97571.34;6091644;23;20196;-83
2023/07/17 09:50:59;;;;;;;4.05;2.72;;;;;;;29.13;29.10;97584.47;6035559;23;20204;-84
2023/07/17 09:53:26;;;;;;;3.78;2.28;;;;;;;29.28;29.09;97580.94;6085743;23;20276;-82
2023/07/17 09:55:52;;;;;;;3.65;2.50;;;;;;;29.30;29.44;97589.41;6060647;23;20405;-82
2023/07/17 09:58:18;;;;;;;3.58;2.55;;;;;;;29.28;29.97;97582.84;6060446;23;20170;-82
2023/07/17 10:00:44;;;;;;;2.75;2.55;;;;;;;29.24;29.30;97579.34;6070752;23;20128;-83
2023/07/17 10:03:11;;;;;;;5.72;2.42;;;;;;;29.12;29.69;97582.94;6068750;23;20299;-83
2023/07/17 10:05:37;;;;;;;4.95;3.00;;;;;;;29.06;28.81;97585.13;6080456;23;20172;-83
2023/07/17 10:08:06;;;;;;;4.28;2.90;;;;;;;28.87;29.20;97579.81;6010611;23;20205;-83
2023/07/17 10:10:31;;;;;;;3.83;2.40;;;;;;;28.52;30.38;97581.44;6033508;23;20180;-85
2023/07/17 10:12:57;;;;;;;3.90;2.60;;;;;;;28.32;31.32;97609.34;6052479;23;20450;-82
2023/07/17 10:15:23;;;;;;;3.13;2.40;;;;;;;28.04;30.42;97606.81;6059504;23;20136;-83
2023/07/17 10:17:57;;;;;;;4.35;1.80;;;;;;;27.43;31.65;97582.84;6044386;23;20452;-82
2023/07/17 10:20:22;;;;;;;3.95;2.40;;;;;;;27.55;33.16;97605.28;6047417;23;20315;-81
2023/07/17 10:22:48;;;;;;;3.05;2.45;;;;;;;27.77;32.45;97599.31;6034953;23;20184;-81
2023/07/17 10:25:19;;;;;;;4.38;2.80;;;;;;;27.77;31.95;97609.25;6011660;23;20145;-82
2023/07/17 10:27:45;;;;;;;3.97;2.10;;;;;;;27.56;31.70;97610.28;5974303;23;20388;-83
2023/07/17 10:30:39;;;;;;;2.38;2.15;;;;;;;27.70;31.63;97599.16;5926580;23;20165;-82
2023/07/17 10:33:15;;;;;;;4.25;2.50;;;;;;;28.01;31.23;97592.22;6052712;23;20210;-83
2023/07/17 10:35:50;;;;;;;2.53;2.20;;;;;;;28.14;30.79;97591.00;6018604;23;20089;-83
2023/07/17 10:38:23;;;;;;;2.75;2.35;;;;;;;28.03;30.49;97584.63;5980298;23;20084;-83
2023/07/17 10:40:48;;;;;;;3.40;2.42;;;;;;;28.05;30.25;97590.38;5985300;23;20199;-82
2023/07/17 10:43:15;;;;;;;3.88;2.00;;;;;;;27.53;30.21;97588.81;6022820;23;20185;-81
2023/07/17 10:45:41;;;;;;;3.63;1.75;;;;;;;27.74;29.21;97581.28;6055005;23;20303;-83
2023/07/17 10:48:06;;;;;;;2.28;2.08;;;;;;;28.09;28.71;97583.22;5987561;23;20082;-82
2023/07/17 10:50:32;;;;;;;2.83;2.00;;;;;;;28.47;28.08;97588.97;6077229;23;20276;-83
2023/07/17 10:53:04;;;;;;;2.67;2.20;;;;;;;28.46;28.35;97580.16;6024171;23;20003;-84
2023/07/17 10:55:31;;;;;;;2.92;2.00;;;;;;;28.65;29.54;97573.28;6064174;23;20399;-83
2023/07/17 10:57:58;;;;;;;2.70;2.20;;;;;;;28.97;30.70;97557.78;6026113;23;20314;-83
2023/07/17 11:00:23;;;;;;;2.50;2.05;;;;;;;29.40;28.61;97555.06;6042294;23;20241;-83
2023/07/17 11:02:49;;;;;;;2.38;2.17;;;;;;;29.55;27.70;97572.94;6016992;23;20137;-84
2023/07/17 11:05:15;;;;;;;2.70;2.20;;;;;;;29.77;28.08;97576.75;6037913;23;20964;-84
2023/07/17 11:07:40;;;;;;;2.83;2.10;;;;;;;29.75;28.00;97552.16;6067061;23;20268;-81
2023/07/17 11:10:13;;;;;;;2.88;1.92;;;;;;;30.22;27.16;97572.34;6031437;23;20464;-82
2023/07/17 11:12:39;;;;;;;2.67;2.13;;;;;;;30.03;26.88;97562.53;6007085;23;20563;-83
2023/07/17 11:15:14;;;;;;;3.55;2.30;;;;;;;30.27;28.26;97567.81;6041557;23;20217;-82
2023/07/17 11:17:40;;;;;;;4.18;2.42;;;;;;;30.14;28.17;97569.94;5937548;23;20085;-83
2023/07/17 11:20:06;;;;;;;3.33;2.35;;;;;;;30.05;27.83;97567.53;6066011;23;20207;-83
2023/07/17 11:22:32;;;;;;;2.28;1.80;;;;;;;29.70;29.02;97558.59;6047116;23;20465;-83
2023/07/17 11:24:58;;;;;;;6.30;2.13;;;;;;;29.41;28.53;97562.00;6062683;23;20492;-82
2023/07/17 11:27:23;;;;;;;2.08;1.92;;;;;;;29.11;29.41;97555.34;6025700;23;20434;-82
2023/07/17 11:29:50;;;;;;;2.30;2.10;;;;;;;29.28;29.77;97556.78;6041355;23;20073;-83
2023/07/17 11:32:20;;;;;;;2.55;2.35;;;;;;;29.19;28.65;97542.84;6014254;23;20233;-83